LIMGLIPE

Guest
Details From LIMG - ALBENGA
To LIPE - BOLOGNA
Flight Number -
Tags generated
Created
Modified
Stats Distance 139 nm / 258 km
Max Altitude 15,800 ft / 4,816 m
Waypoints 4
Social Downloads 0
Likes 0
Share VATSIM

Download

Looking for another format? Having issues loading an existing format? Contact us
Advertisement - Login to hide

Notes

Basic altitude profile: - Ascent Rate: 2500ft/min - Ascent Speed: 250kts - Cruise Altitude: 35000ft - Cruise Speed: 420kts - Descent Rate: 1500ft/min - Descent Speed: 250kts Options: - Use NATs: yes - Use PACOTS: yes - Use low airways: yes - Use high airways: yes

Route

LIMG ABN Z713 KALMO LIPE

ID Type Via Altitude Latitude Longitude Leg Dist Tot Dist Heading (true) Name
O LIMG APT - 0 ft / 0 m 44.05058˚ 8.12740˚ - 0 nm - ALBENGA
ABN NDB - 1,400 ft / 427 m 44.05583˚ 8.22111˚ 4 nm 4 nm 86° / 86° ALBENGA NDB
KALMO FIX Z713 (AWY-LO) 15,800 ft / 4,816 m 44.32167˚ 9.59417˚ 61 nm 65 nm 74° / 75° -
O LIPE APT - 0 ft / 0 m 44.53545˚ 11.28866˚ 73 nm 139 nm 79° / 81° BOLOGNA

Altitude Profile

Advertisement - Login to hide

LIMG

Details ICAO LIMG (ALL)
Name ALBENGA
Region Italy
Timezone Europe/Rome (UTC+2.0)
Stats Elevation 148 ft / 45 m (AMSL)
Location 44.050576° 8.127396°
Runways 1
Magnetic Variation 2.273° E

METAR

LIMG 201550Z 02011KT CAVOK 25/10 Q1012

Decode

TAF

Not found

Departure Runways

ID Width Length Bearing (true) Bearing (mag) Surface Threshold Offset Overrun Length
09 148 ft / 45 m 4,681 ft / 1,427 m 92.94° 90.67° Asphalt 295 ft / 90 m 0 ft / 0 m
27 148 ft / 45 m 4,681 ft / 1,427 m 272.95° 270.68° Asphalt 0 ft / 0 m 425 ft / 130 m

LIPE

Details ICAO LIPE (BLQ)
Name BOLOGNA
Region Italy
Timezone Europe/Rome (UTC+2.0)
Stats Elevation 123 ft / 37 m (AMSL)
Location 44.535446° 11.288662°
Runways 1
Magnetic Variation 2.966° E

METAR

LIPE 201550Z 10010KT 9999 FEW050 25/13 Q1014

Decode

TAF

TAF LIPE 201100Z 2012/2112 10010KT 9999 SCT030 BECMG 2017/2019 VRB05KT

Decode

Destination Runways

ID Width Length Bearing (true) Bearing (mag) Surface Threshold Offset Overrun Length
12 148 ft / 45 m 9,185 ft / 2,800 m 116.78° 113.81° Asphalt 1,007 ft / 307 m 0 ft / 0 m
30 148 ft / 45 m 9,185 ft / 2,800 m 296.81° 293.84° Asphalt 1,188 ft / 362 m 200 ft / 61 m

Approach Navaids

Runway Type Ident Frequency Range Bearing (true) Bearing (mag) Slope Elevation
12 Localiser BLN 108.90 MHz 18 nm / 33 km 116.81° 113.85° - 123 ft / 37 m (AMSL)
12 Glidescope BLN 108.90 MHz 10 nm / 19 km 116.80° 113.83° 3.00° 120 ft / 37 m (AMSL)
12 DME BLN 108.90 MHz 18 nm / 33 km - - - 131 ft / 40 m (AMSL)
30 Localiser IBBP 109.75 MHz 18 nm / 33 km 296.66° 293.70° - 123 ft / 37 m (AMSL)
30 Glidescope IBBP 109.75 MHz 10 nm / 19 km 296.88° 293.91° 3.50° 123 ft / 37 m (AMSL)
30 DME IBBP 109.75 MHz 18 nm / 33 km - - - 123 ft / 37 m (AMSL)